sensor_id;sensor_type;location;lat;lon;timestamp;P1;durP1;ratioP1;P2;durP2;ratioP2
19207;SDS011;9737;59.466;18.036;2023-07-24T00:02:12;6.53;;;4.22;;
19207;SDS011;9737;59.466;18.036;2023-07-24T00:04:40;6.10;;;4.20;;
19207;SDS011;9737;59.466;18.036;2023-07-24T00:07:08;5.70;;;3.72;;
19207;SDS011;9737;59.466;18.036;2023-07-24T00:09:36;6.65;;;4.00;;
19207;SDS011;9737;59.466;18.036;2023-07-24T00:12:04;8.70;;;4.15;;
19207;SDS011;9737;59.466;18.036;2023-07-24T00:14:34;7.38;;;4.28;;
19207;SDS011;9737;59.466;18.036;2023-07-24T00:17:02;9.77;;;4.45;;
19207;SDS011;9737;59.466;18.036;2023-07-24T00:19:29;7.35;;;4.00;;
19207;SDS011;9737;59.466;18.036;2023-07-24T00:21:57;9.70;;;4.50;;
19207;SDS011;9737;59.466;18.036;2023-07-24T00:24:25;6.35;;;4.15;;
19207;SDS011;9737;59.466;18.036;2023-07-24T00:26:53;6.35;;;3.88;;
19207;SDS011;9737;59.466;18.036;2023-07-24T00:29:21;8.02;;;4.32;;
19207;SDS011;9737;59.466;18.036;2023-07-24T00:31:50;7.72;;;4.10;;
19207;SDS011;9737;59.466;18.036;2023-07-24T00:34:18;9.38;;;4.43;;
19207;SDS011;9737;59.466;18.036;2023-07-24T00:36:46;8.98;;;4.50;;
19207;SDS011;9737;59.466;18.036;2023-07-24T00:39:14;8.95;;;4.20;;
19207;SDS011;9737;59.466;18.036;2023-07-24T00:41:42;7.65;;;4.03;;
19207;SDS011;9737;59.466;18.036;2023-07-24T00:44:10;8.15;;;3.95;;
19207;SDS011;9737;59.466;18.036;2023-07-24T00:46:38;7.00;;;4.40;;
19207;SDS011;9737;59.466;18.036;2023-07-24T00:49:07;7.35;;;4.30;;
19207;SDS011;9737;59.466;18.036;2023-07-24T00:51:36;7.32;;;3.97;;
19207;SDS011;9737;59.466;18.036;2023-07-24T00:54:04;7.65;;;4.22;;
19207;SDS011;9737;59.466;18.036;2023-07-24T00:56:33;9.27;;;4.40;;
19207;SDS011;9737;59.466;18.036;2023-07-24T00:59:01;7.80;;;4.68;;
19207;SDS011;9737;59.466;18.036;2023-07-24T01:01:29;5.97;;;4.10;;
19207;SDS011;9737;59.466;18.036;2023-07-24T01:03:57;6.38;;;4.07;;
19207;SDS011;9737;59.466;18.036;2023-07-24T01:06:27;6.90;;;3.97;;
19207;SDS011;9737;59.466;18.036;2023-07-24T01:08:56;9.90;;;4.60;;
19207;SDS011;9737;59.466;18.036;2023-07-24T01:11:26;7.15;;;3.92;;
19207;SDS011;9737;59.466;18.036;2023-07-24T01:13:57;5.88;;;4.10;;
19207;SDS011;9737;59.466;18.036;2023-07-24T01:16:31;6.90;;;4.07;;
19207;SDS011;9737;59.466;18.036;2023-07-24T01:19:04;6.18;;;4.40;;
19207;SDS011;9737;59.466;18.036;2023-07-24T01:21:44;9.50;;;4.72;;
19207;SDS011;9737;59.466;18.036;2023-07-24T01:24:23;9.25;;;4.70;;
19207;SDS011;9737;59.466;18.036;2023-07-24T01:26:58;8.98;;;4.50;;
19207;SDS011;9737;59.466;18.036;2023-07-24T01:29:26;6.63;;;4.43;;
19207;SDS011;9737;59.466;18.036;2023-07-24T01:31:54;8.98;;;4.32;;
19207;SDS011;9737;59.466;18.036;2023-07-24T01:34:22;6.82;;;4.22;;
19207;SDS011;9737;59.466;18.036;2023-07-24T01:36:50;8.45;;;4.53;;
19207;SDS011;9737;59.466;18.036;2023-07-24T01:39:19;7.35;;;4.43;;
19207;SDS011;9737;59.466;18.036;2023-07-24T01:41:48;8.55;;;4.60;;
19207;SDS011;9737;59.466;18.036;2023-07-24T01:44:18;6.18;;;4.25;;
19207;SDS011;9737;59.466;18.036;2023-07-24T01:46:46;8.73;;;4.35;;
19207;SDS011;9737;59.466;18.036;2023-07-24T01:49:14;7.30;;;4.47;;
19207;SDS011;9737;59.466;18.036;2023-07-24T01:51:42;6.45;;;4.40;;
19207;SDS011;9737;59.466;18.036;2023-07-24T01:54:10;7.88;;;4.20;;
19207;SDS011;9737;59.466;18.036;2023-07-24T01:56:39;9.95;;;4.30;;
19207;SDS011;9737;59.466;18.036;2023-07-24T01:59:07;8.15;;;4.40;;
19207;SDS011;9737;59.466;18.036;2023-07-24T02:01:36;9.82;;;4.22;;
19207;SDS011;9737;59.466;18.036;2023-07-24T02:04:04;6.82;;;4.07;;
19207;SDS011;9737;59.466;18.036;2023-07-24T02:06:31;7.30;;;4.13;;
19207;SDS011;9737;59.466;18.036;2023-07-24T02:08:59;7.07;;;4.20;;
19207;SDS011;9737;59.466;18.036;2023-07-24T02:11:27;8.45;;;4.43;;
19207;SDS011;9737;59.466;18.036;2023-07-24T02:13:55;6.35;;;4.10;;
19207;SDS011;9737;59.466;18.036;2023-07-24T02:16:22;5.65;;;4.35;;
19207;SDS011;9737;59.466;18.036;2023-07-24T02:18:52;7.97;;;3.95;;
19207;SDS011;9737;59.466;18.036;2023-07-24T02:21:19;6.55;;;4.22;;
19207;SDS011;9737;59.466;18.036;2023-07-24T02:23:47;7.43;;;3.72;;
19207;SDS011;9737;59.466;18.036;2023-07-24T02:26:15;6.50;;;4.30;;
19207;SDS011;9737;59.466;18.036;2023-07-24T02:28:43;10.80;;;4.68;;
19207;SDS011;9737;59.466;18.036;2023-07-24T02:31:11;7.07;;;4.60;;
19207;SDS011;9737;59.466;18.036;2023-07-24T02:33:39;6.80;;;4.53;;
19207;SDS011;9737;59.466;18.036;2023-07-24T02:36:08;7.75;;;4.10;;
19207;SDS011;9737;59.466;18.036;2023-07-24T02:38:36;6.65;;;4.10;;
19207;SDS011;9737;59.466;18.036;2023-07-24T02:41:04;7.22;;;4.63;;
19207;SDS011;9737;59.466;18.036;2023-07-24T02:43:32;8.27;;;4.70;;
19207;SDS011;9737;59.466;18.036;2023-07-24T02:46:00;7.75;;;4.38;;
19207;SDS011;9737;59.466;18.036;2023-07-24T02:48:29;9.73;;;4.68;;
19207;SDS011;9737;59.466;18.036;2023-07-24T02:50:57;6.57;;;4.10;;
19207;SDS011;9737;59.466;18.036;2023-07-24T02:53:26;6.53;;;4.07;;
19207;SDS011;9737;59.466;18.036;2023-07-24T02:55:54;12.13;;;4.63;;
19207;SDS011;9737;59.466;18.036;2023-07-24T02:58:21;8.52;;;4.57;;
19207;SDS011;9737;59.466;18.036;2023-07-24T03:00:49;6.88;;;4.57;;
19207;SDS011;9737;59.466;18.036;2023-07-24T03:03:17;6.82;;;4.18;;
19207;SDS011;9737;59.466;18.036;2023-07-24T03:05:45;9.70;;;4.60;;
19207;SDS011;9737;59.466;18.036;2023-07-24T03:08:13;7.90;;;4.53;;
19207;SDS011;9737;59.466;18.036;2023-07-24T03:10:42;8.73;;;4.53;;
19207;SDS011;9737;59.466;18.036;2023-07-24T03:13:10;5.75;;;4.38;;
19207;SDS011;9737;59.466;18.036;2023-07-24T03:15:38;7.38;;;4.40;;
19207;SDS011;9737;59.466;18.036;2023-07-24T03:18:06;7.40;;;4.93;;
19207;SDS011;9737;59.466;18.036;2023-07-24T03:20:34;5.80;;;3.92;;
19207;SDS011;9737;59.466;18.036;2023-07-24T03:23:02;5.65;;;4.10;;
19207;SDS011;9737;59.466;18.036;2023-07-24T03:25:29;7.57;;;4.38;;
19207;SDS011;9737;59.466;18.036;2023-07-24T03:28:03;7.20;;;4.10;;
19207;SDS011;9737;59.466;18.036;2023-07-24T03:30:31;6.97;;;4.28;;
19207;SDS011;9737;59.466;18.036;2023-07-24T03:32:59;6.10;;;4.25;;
19207;SDS011;9737;59.466;18.036;2023-07-24T03:35:28;6.13;;;4.15;;
19207;SDS011;9737;59.466;18.036;2023-07-24T03:37:55;5.78;;;4.13;;
19207;SDS011;9737;59.466;18.036;2023-07-24T03:40:23;6.95;;;4.70;;
19207;SDS011;9737;59.466;18.036;2023-07-24T03:42:51;6.55;;;4.68;;
19207;SDS011;9737;59.466;18.036;2023-07-24T03:45:20;8.82;;;4.50;;
19207;SDS011;9737;59.466;18.036;2023-07-24T03:47:48;8.07;;;4.55;;
19207;SDS011;9737;59.466;18.036;2023-07-24T03:50:16;5.38;;;3.65;;
19207;SDS011;9737;59.466;18.036;2023-07-24T03:52:45;5.65;;;4.45;;
19207;SDS011;9737;59.466;18.036;2023-07-24T03:55:13;7.88;;;4.18;;
19207;SDS011;9737;59.466;18.036;2023-07-24T03:57:41;9.23;;;4.88;;
19207;SDS011;9737;59.466;18.036;2023-07-24T04:00:09;9.10;;;4.20;;
19207;SDS011;9737;59.466;18.036;2023-07-24T04:02:39;6.80;;;4.00;;
19207;SDS011;9737;59.466;18.036;2023-07-24T04:05:07;8.75;;;4.70;;
19207;SDS011;9737;59.466;18.036;2023-07-24T04:07:35;9.15;;;4.53;;
19207;SDS011;9737;59.466;18.036;2023-07-24T04:10:03;8.48;;;4.75;;
19207;SDS011;9737;59.466;18.036;2023-07-24T04:12:32;8.80;;;4.97;;
19207;SDS011;9737;59.466;18.036;2023-07-24T04:15:00;8.35;;;4.35;;
19207;SDS011;9737;59.466;18.036;2023-07-24T04:17:28;6.25;;;4.90;;
19207;SDS011;9737;59.466;18.036;2023-07-24T04:19:57;6.68;;;4.50;;
19207;SDS011;9737;59.466;18.036;2023-07-24T04:22:25;7.75;;;5.03;;
19207;SDS011;9737;59.466;18.036;2023-07-24T04:24:53;7.43;;;4.82;;
19207;SDS011;9737;59.466;18.036;2023-07-24T04:27:21;8.07;;;4.90;;
19207;SDS011;9737;59.466;18.036;2023-07-24T04:29:49;10.50;;;5.28;;
19207;SDS011;9737;59.466;18.036;2023-07-24T04:32:16;10.07;;;5.28;;
19207;SDS011;9737;59.466;18.036;2023-07-24T04:34:44;7.82;;;4.95;;
19207;SDS011;9737;59.466;18.036;2023-07-24T04:37:13;9.38;;;5.13;;
19207;SDS011;9737;59.466;18.036;2023-07-24T04:39:41;11.57;;;5.57;;
19207;SDS011;9737;59.466;18.036;2023-07-24T04:42:09;10.02;;;5.47;;
19207;SDS011;9737;59.466;18.036;2023-07-24T04:44:37;13.52;;;6.28;;
19207;SDS011;9737;59.466;18.036;2023-07-24T04:47:05;13.07;;;6.47;;
19207;SDS011;9737;59.466;18.036;2023-07-24T04:49:32;10.13;;;5.50;;
19207;SDS011;9737;59.466;18.036;2023-07-24T04:52:00;12.25;;;5.63;;
19207;SDS011;9737;59.466;18.036;2023-07-24T04:54:30;13.93;;;6.28;;
19207;SDS011;9737;59.466;18.036;2023-07-24T04:56:57;8.18;;;5.25;;
19207;SDS011;9737;59.466;18.036;2023-07-24T04:59:25;10.38;;;5.38;;
19207;SDS011;9737;59.466;18.036;2023-07-24T05:01:53;11.10;;;5.00;;
19207;SDS011;9737;59.466;18.036;2023-07-24T05:04:22;10.25;;;5.13;;
19207;SDS011;9737;59.466;18.036;2023-07-24T05:06:50;9.05;;;5.25;;
19207;SDS011;9737;59.466;18.036;2023-07-24T05:09:18;10.00;;;5.35;;
19207;SDS011;9737;59.466;18.036;2023-07-24T05:11:47;10.18;;;5.97;;
19207;SDS011;9737;59.466;18.036;2023-07-24T05:14:14;8.48;;;5.28;;
19207;SDS011;9737;59.466;18.036;2023-07-24T05:16:42;10.00;;;6.03;;
19207;SDS011;9737;59.466;18.036;2023-07-24T05:19:10;8.85;;;5.90;;
19207;SDS011;9737;59.466;18.036;2023-07-24T05:21:38;7.28;;;5.15;;
19207;SDS011;9737;59.466;18.036;2023-07-24T05:24:06;10.38;;;5.90;;
19207;SDS011;9737;59.466;18.036;2023-07-24T05:26:33;11.65;;;5.78;;
19207;SDS011;9737;59.466;18.036;2023-07-24T05:29:03;9.02;;;4.90;;
19207;SDS011;9737;59.466;18.036;2023-07-24T05:31:30;12.55;;;5.50;;
19207;SDS011;9737;59.466;18.036;2023-07-24T05:33:58;8.60;;;5.32;;
19207;SDS011;9737;59.466;18.036;2023-07-24T05:36:26;8.20;;;5.03;;
19207;SDS011;9737;59.466;18.036;2023-07-24T05:38:54;8.30;;;4.57;;
19207;SDS011;9737;59.466;18.036;2023-07-24T05:41:22;8.90;;;5.00;;
19207;SDS011;9737;59.466;18.036;2023-07-24T05:43:50;5.88;;;4.55;;
19207;SDS011;9737;59.466;18.036;2023-07-24T05:46:19;12.57;;;5.18;;
19207;SDS011;9737;59.466;18.036;2023-07-24T05:48:47;6.00;;;3.90;;
19207;SDS011;9737;59.466;18.036;2023-07-24T05:51:15;7.72;;;4.43;;
19207;SDS011;9737;59.466;18.036;2023-07-24T05:53:42;7.03;;;4.68;;
19207;SDS011;9737;59.466;18.036;2023-07-24T05:56:10;7.97;;;4.10;;
19207;SDS011;9737;59.466;18.036;2023-07-24T05:58:38;7.78;;;4.43;;
19207;SDS011;9737;59.466;18.036;2023-07-24T06:01:06;7.20;;;3.97;;
19207;SDS011;9737;59.466;18.036;2023-07-24T06:03:37;9.05;;;4.10;;
19207;SDS011;9737;59.466;18.036;2023-07-24T06:06:06;12.00;;;4.28;;
19207;SDS011;9737;59.466;18.036;2023-07-24T06:08:33;5.75;;;4.00;;
19207;SDS011;9737;59.466;18.036;2023-07-24T06:11:01;5.45;;;3.78;;
19207;SDS011;9737;59.466;18.036;2023-07-24T06:13:29;6.53;;;4.00;;
19207;SDS011;9737;59.466;18.036;2023-07-24T06:15:57;6.35;;;3.78;;
19207;SDS011;9737;59.466;18.036;2023-07-24T06:18:25;6.57;;;3.75;;
19207;SDS011;9737;59.466;18.036;2023-07-24T06:20:55;7.65;;;3.90;;
19207;SDS011;9737;59.466;18.036;2023-07-24T06:23:22;7.18;;;3.88;;
19207;SDS011;9737;59.466;18.036;2023-07-24T06:25:50;8.75;;;3.97;;
19207;SDS011;9737;59.466;18.036;2023-07-24T06:28:19;6.78;;;3.85;;
19207;SDS011;9737;59.466;18.036;2023-07-24T06:30:47;8.55;;;4.00;;
19207;SDS011;9737;59.466;18.036;2023-07-24T06:33:14;7.57;;;4.43;;
19207;SDS011;9737;59.466;18.036;2023-07-24T06:35:42;5.35;;;3.35;;
19207;SDS011;9737;59.466;18.036;2023-07-24T06:38:12;7.15;;;3.40;;
19207;SDS011;9737;59.466;18.036;2023-07-24T06:40:40;9.68;;;3.70;;
19207;SDS011;9737;59.466;18.036;2023-07-24T06:43:07;6.60;;;2.97;;
19207;SDS011;9737;59.466;18.036;2023-07-24T06:45:35;4.88;;;3.15;;
19207;SDS011;9737;59.466;18.036;2023-07-24T06:48:03;4.53;;;2.97;;
19207;SDS011;9737;59.466;18.036;2023-07-24T06:50:32;4.72;;;2.78;;
19207;SDS011;9737;59.466;18.036;2023-07-24T06:52:59;7.35;;;2.97;;
19207;SDS011;9737;59.466;18.036;2023-07-24T06:55:29;7.00;;;2.92;;
19207;SDS011;9737;59.466;18.036;2023-07-24T06:57:56;4.65;;;2.85;;
19207;SDS011;9737;59.466;18.036;2023-07-24T07:00:24;5.60;;;3.10;;
19207;SDS011;9737;59.466;18.036;2023-07-24T07:02:52;4.95;;;3.03;;
19207;SDS011;9737;59.466;18.036;2023-07-24T07:05:20;6.13;;;3.10;;
19207;SDS011;9737;59.466;18.036;2023-07-24T07:07:48;5.80;;;2.65;;
19207;SDS011;9737;59.466;18.036;2023-07-24T07:10:16;6.22;;;3.00;;
19207;SDS011;9737;59.466;18.036;2023-07-24T07:12:45;5.70;;;2.58;;
19207;SDS011;9737;59.466;18.036;2023-07-24T07:15:13;8.63;;;2.50;;
19207;SDS011;9737;59.466;18.036;2023-07-24T07:17:41;4.10;;;2.45;;
19207;SDS011;9737;59.466;18.036;2023-07-24T07:20:09;4.68;;;2.42;;
19207;SDS011;9737;59.466;18.036;2023-07-24T07:22:37;3.10;;;2.15;;
19207;SDS011;9737;59.466;18.036;2023-07-24T07:25:05;4.10;;;2.40;;
19207;SDS011;9737;59.466;18.036;2023-07-24T07:27:33;6.60;;;2.47;;
19207;SDS011;9737;59.466;18.036;2023-07-24T07:30:03;4.68;;;2.30;;
19207;SDS011;9737;59.466;18.036;2023-07-24T07:32:31;4.53;;;2.03;;
19207;SDS011;9737;59.466;18.036;2023-07-24T07:34:59;5.25;;;2.15;;
19207;SDS011;9737;59.466;18.036;2023-07-24T07:37:27;4.07;;;2.05;;
19207;SDS011;9737;59.466;18.036;2023-07-24T07:39:55;4.97;;;2.33;;
19207;SDS011;9737;59.466;18.036;2023-07-24T07:42:23;3.15;;;2.13;;
19207;SDS011;9737;59.466;18.036;2023-07-24T07:44:51;3.60;;;1.90;;
19207;SDS011;9737;59.466;18.036;2023-07-24T07:47:20;3.88;;;2.13;;
19207;SDS011;9737;59.466;18.036;2023-07-24T07:49:48;3.75;;;2.40;;
19207;SDS011;9737;59.466;18.036;2023-07-24T07:52:16;3.70;;;2.35;;
19207;SDS011;9737;59.466;18.036;2023-07-24T07:54:45;4.88;;;2.08;;
19207;SDS011;9737;59.466;18.036;2023-07-24T07:57:14;3.28;;;2.10;;
19207;SDS011;9737;59.466;18.036;2023-07-24T07:59:42;4.55;;;1.90;;
19207;SDS011;9737;59.466;18.036;2023-07-24T08:02:10;3.15;;;1.98;;
19207;SDS011;9737;59.466;18.036;2023-07-24T08:04:39;3.60;;;2.10;;
19207;SDS011;9737;59.466;18.036;2023-07-24T08:07:07;4.88;;;2.13;;
19207;SDS011;9737;59.466;18.036;2023-07-24T08:09:34;5.97;;;1.92;;
19207;SDS011;9737;59.466;18.036;2023-07-24T08:12:04;3.63;;;2.10;;
19207;SDS011;9737;59.466;18.036;2023-07-24T08:14:34;4.53;;;1.90;;
19207;SDS011;9737;59.466;18.036;2023-07-24T08:17:02;3.17;;;2.00;;
19207;SDS011;9737;59.466;18.036;2023-07-24T08:19:30;3.15;;;2.00;;
19207;SDS011;9737;59.466;18.036;2023-07-24T08:21:59;3.58;;;1.80;;
19207;SDS011;9737;59.466;18.036;2023-07-24T08:24:27;3.05;;;1.80;;
19207;SDS011;9737;59.466;18.036;2023-07-24T08:26:55;3.17;;;1.90;;
19207;SDS011;9737;59.466;18.036;2023-07-24T08:29:23;2.40;;;1.73;;
19207;SDS011;9737;59.466;18.036;2023-07-24T08:31:51;3.35;;;1.73;;
19207;SDS011;9737;59.466;18.036;2023-07-24T08:34:18;3.20;;;1.73;;
19207;SDS011;9737;59.466;18.036;2023-07-24T08:36:46;2.80;;;1.85;;
19207;SDS011;9737;59.466;18.036;2023-07-24T08:39:15;2.63;;;1.67;;
19207;SDS011;9737;59.466;18.036;2023-07-24T08:41:43;2.05;;;1.45;;
19207;SDS011;9737;59.466;18.036;2023-07-24T08:44:11;3.28;;;1.60;;
19207;SDS011;9737;59.466;18.036;2023-07-24T08:46:39;3.67;;;1.77;;
19207;SDS011;9737;59.466;18.036;2023-07-24T08:49:12;3.28;;;1.70;;
19207;SDS011;9737;59.466;18.036;2023-07-24T08:51:40;5.32;;;1.88;;
19207;SDS011;9737;59.466;18.036;2023-07-24T08:54:08;4.47;;;1.90;;
19207;SDS011;9737;59.466;18.036;2023-07-24T08:56:39;3.25;;;1.60;;
19207;SDS011;9737;59.466;18.036;2023-07-24T08:59:08;3.50;;;2.00;;
19207;SDS011;9737;59.466;18.036;2023-07-24T09:01:35;3.88;;;1.70;;
19207;SDS011;9737;59.466;18.036;2023-07-24T09:04:03;2.58;;;1.45;;
19207;SDS011;9737;59.466;18.036;2023-07-24T09:06:31;2.97;;;1.55;;
19207;SDS011;9737;59.466;18.036;2023-07-24T09:08:59;1.67;;;1.27;;
19207;SDS011;9737;59.466;18.036;2023-07-24T09:11:28;2.28;;;1.67;;
19207;SDS011;9737;59.466;18.036;2023-07-24T09:13:57;2.25;;;1.13;;
19207;SDS011;9737;59.466;18.036;2023-07-24T09:16:26;1.88;;;1.10;;
19207;SDS011;9737;59.466;18.036;2023-07-24T09:18:54;3.65;;;1.10;;
19207;SDS011;9737;59.466;18.036;2023-07-24T09:21:36;1.45;;;1.00;;
19207;SDS011;9737;59.466;18.036;2023-07-24T09:24:10;1.75;;;1.10;;
19207;SDS011;9737;59.466;18.036;2023-07-24T09:26:48;2.92;;;1.23;;
19207;SDS011;9737;59.466;18.036;2023-07-24T09:29:19;2.75;;;1.40;;
19207;SDS011;9737;59.466;18.036;2023-07-24T09:31:47;2.33;;;1.40;;
19207;SDS011;9737;59.466;18.036;2023-07-24T09:34:18;2.67;;;1.20;;
19207;SDS011;9737;59.466;18.036;2023-07-24T09:36:46;1.90;;;1.30;;
19207;SDS011;9737;59.466;18.036;2023-07-24T09:39:14;1.73;;;1.20;;
19207;SDS011;9737;59.466;18.036;2023-07-24T09:41:41;2.00;;;1.30;;
19207;SDS011;9737;59.466;18.036;2023-07-24T09:44:11;2.25;;;1.27;;
19207;SDS011;9737;59.466;18.036;2023-07-24T09:46:40;2.00;;;1.25;;
19207;SDS011;9737;59.466;18.036;2023-07-24T09:49:27;1.55;;;1.08;;
19207;SDS011;9737;59.466;18.036;2023-07-24T09:51:55;2.28;;;1.23;;
19207;SDS011;9737;59.466;18.036;2023-07-24T09:54:29;2.90;;;1.15;;
19207;SDS011;9737;59.466;18.036;2023-07-24T09:57:00;2.22;;;1.13;;
19207;SDS011;9737;59.466;18.036;2023-07-24T09:59:46;1.67;;;1.00;;
19207;SDS011;9737;59.466;18.036;2023-07-24T10:02:17;3.40;;;1.10;;
19207;SDS011;9737;59.466;18.036;2023-07-24T10:04:45;1.88;;;1.10;;
19207;SDS011;9737;59.466;18.036;2023-07-24T10:07:14;4.10;;;1.13;;
19207;SDS011;9737;59.466;18.036;2023-07-24T10:09:42;2.22;;;1.10;;
19207;SDS011;9737;59.466;18.036;2023-07-24T10:12:11;2.03;;;1.00;;
19207;SDS011;9737;59.466;18.036;2023-07-24T10:14:39;2.38;;;1.02;;
19207;SDS011;9737;59.466;18.036;2023-07-24T10:17:07;2.47;;;1.10;;
19207;SDS011;9737;59.466;18.036;2023-07-24T10:19:37;2.05;;;0.90;;
19207;SDS011;9737;59.466;18.036;2023-07-24T10:22:09;2.97;;;1.00;;
19207;SDS011;9737;59.466;18.036;2023-07-24T10:24:37;4.40;;;1.27;;
19207;SDS011;9737;59.466;18.036;2023-07-24T10:27:08;1.48;;;0.95;;
19207;SDS011;9737;59.466;18.036;2023-07-24T10:29:36;1.83;;;1.00;;
19207;SDS011;9737;59.466;18.036;2023-07-24T10:32:04;1.08;;;0.95;;
19207;SDS011;9737;59.466;18.036;2023-07-24T10:34:45;1.30;;;1.00;;
19207;SDS011;9737;59.466;18.036;2023-07-24T10:37:13;1.98;;;1.15;;
19207;SDS011;9737;59.466;18.036;2023-07-24T10:39:41;1.00;;;0.88;;
19207;SDS011;9737;59.466;18.036;2023-07-24T10:42:09;1.80;;;1.15;;
19207;SDS011;9737;59.466;18.036;2023-07-24T10:44:38;1.05;;;0.90;;
19207;SDS011;9737;59.466;18.036;2023-07-24T10:47:06;1.77;;;1.15;;
19207;SDS011;9737;59.466;18.036;2023-07-24T10:49:34;1.65;;;0.85;;
19207;SDS011;9737;59.466;18.036;2023-07-24T10:52:04;3.08;;;1.02;;
19207;SDS011;9737;59.466;18.036;2023-07-24T10:54:32;2.10;;;1.20;;
19207;SDS011;9737;59.466;18.036;2023-07-24T10:57:00;2.72;;;1.08;;
19207;SDS011;9737;59.466;18.036;2023-07-24T10:59:37;2.70;;;1.20;;
19207;SDS011;9737;59.466;18.036;2023-07-24T11:02:06;3.05;;;1.27;;
19207;SDS011;9737;59.466;18.036;2023-07-24T11:04:36;2.35;;;1.10;;
19207;SDS011;9737;59.466;18.036;2023-07-24T11:07:05;2.05;;;0.88;;
19207;SDS011;9737;59.466;18.036;2023-07-24T11:09:34;1.80;;;1.08;;
19207;SDS011;9737;59.466;18.036;2023-07-24T11:12:09;1.67;;;1.02;;
19207;SDS011;9737;59.466;18.036;2023-07-24T11:14:48;3.15;;;1.10;;
19207;SDS011;9737;59.466;18.036;2023-07-24T11:17:16;2.08;;;1.10;;
19207;SDS011;9737;59.466;18.036;2023-07-24T11:19:44;1.52;;;1.15;;
19207;SDS011;9737;59.466;18.036;2023-07-24T11:22:14;1.15;;;1.05;;
19207;SDS011;9737;59.466;18.036;2023-07-24T11:24:43;3.30;;;1.33;;
19207;SDS011;9737;59.466;18.036;2023-07-24T11:27:13;1.10;;;1.00;;
19207;SDS011;9737;59.466;18.036;2023-07-24T11:29:42;1.73;;;1.00;;
19207;SDS011;9737;59.466;18.036;2023-07-24T11:32:17;3.33;;;1.20;;
19207;SDS011;9737;59.466;18.036;2023-07-24T11:34:45;2.75;;;1.35;;
19207;SDS011;9737;59.466;18.036;2023-07-24T11:37:15;2.38;;;1.50;;
19207;SDS011;9737;59.466;18.036;2023-07-24T11:39:54;2.13;;;1.40;;
19207;SDS011;9737;59.466;18.036;2023-07-24T11:42:24;2.42;;;1.60;;
19207;SDS011;9737;59.466;18.036;2023-07-24T11:44:52;3.35;;;1.20;;
19207;SDS011;9737;59.466;18.036;2023-07-24T11:47:20;3.30;;;1.60;;
19207;SDS011;9737;59.466;18.036;2023-07-24T11:49:58;2.17;;;1.20;;
19207;SDS011;9737;59.466;18.036;2023-07-24T11:52:38;2.13;;;1.17;;
19207;SDS011;9737;59.466;18.036;2023-07-24T11:55:07;2.05;;;1.15;;
19207;SDS011;9737;59.466;18.036;2023-07-24T11:57:35;2.05;;;1.27;;
19207;SDS011;9737;59.466;18.036;2023-07-24T12:00:03;1.50;;;0.90;;
19207;SDS011;9737;59.466;18.036;2023-07-24T12:02:32;2.08;;;1.20;;
19207;SDS011;9737;59.466;18.036;2023-07-24T12:05:00;1.30;;;1.00;;
19207;SDS011;9737;59.466;18.036;2023-07-24T12:07:30;3.80;;;1.13;;
19207;SDS011;9737;59.466;18.036;2023-07-24T12:10:01;2.28;;;1.10;;
19207;SDS011;9737;59.466;18.036;2023-07-24T12:12:38;1.25;;;0.93;;
19207;SDS011;9737;59.466;18.036;2023-07-24T12:15:07;1.67;;;1.08;;
19207;SDS011;9737;59.466;18.036;2023-07-24T12:17:35;1.70;;;1.10;;
19207;SDS011;9737;59.466;18.036;2023-07-24T12:20:04;2.30;;;1.05;;
19207;SDS011;9737;59.466;18.036;2023-07-24T12:22:34;2.45;;;1.02;;
19207;SDS011;9737;59.466;18.036;2023-07-24T12:25:04;1.27;;;0.88;;
19207;SDS011;9737;59.466;18.036;2023-07-24T12:27:33;1.73;;;1.00;;
19207;SDS011;9737;59.466;18.036;2023-07-24T12:30:01;1.20;;;0.98;;
19207;SDS011;9737;59.466;18.036;2023-07-24T12:32:29;2.08;;;0.90;;
19207;SDS011;9737;59.466;18.036;2023-07-24T12:34:57;1.30;;;1.20;;
19207;SDS011;9737;59.466;18.036;2023-07-24T12:37:25;2.08;;;1.05;;
19207;SDS011;9737;59.466;18.036;2023-07-24T12:39:53;2.05;;;1.25;;
19207;SDS011;9737;59.466;18.036;2023-07-24T12:42:22;1.73;;;1.00;;
19207;SDS011;9737;59.466;18.036;2023-07-24T12:44:50;1.75;;;1.17;;
19207;SDS011;9737;59.466;18.036;2023-07-24T12:47:18;1.17;;;0.88;;
19207;SDS011;9737;59.466;18.036;2023-07-24T12:49:46;1.08;;;0.85;;
19207;SDS011;9737;59.466;18.036;2023-07-24T12:52:14;1.73;;;1.10;;
19207;SDS011;9737;59.466;18.036;2023-07-24T12:54:41;2.38;;;0.88;;
19207;SDS011;9737;59.466;18.036;2023-07-24T12:57:28;2.10;;;0.90;;
19207;SDS011;9737;59.466;18.036;2023-07-24T12:59:57;3.63;;;1.00;;
19207;SDS011;9737;59.466;18.036;2023-07-24T13:02:24;1.50;;;1.10;;
19207;SDS011;9737;59.466;18.036;2023-07-24T13:04:52;1.90;;;1.00;;
19207;SDS011;9737;59.466;18.036;2023-07-24T13:07:20;3.03;;;0.90;;
19207;SDS011;9737;59.466;18.036;2023-07-24T13:09:48;0.90;;;0.60;;
19207;SDS011;9737;59.466;18.036;2023-07-24T13:12:16;1.85;;;0.90;;
19207;SDS011;9737;59.466;18.036;2023-07-24T13:14:45;0.90;;;0.77;;
19207;SDS011;9737;59.466;18.036;2023-07-24T13:17:13;1.00;;;0.90;;
19207;SDS011;9737;59.466;18.036;2023-07-24T13:19:41;0.90;;;0.65;;
19207;SDS011;9737;59.466;18.036;2023-07-24T13:22:09;3.35;;;0.80;;
19207;SDS011;9737;59.466;18.036;2023-07-24T13:24:37;1.40;;;0.70;;
19207;SDS011;9737;59.466;18.036;2023-07-24T13:27:05;2.15;;;0.60;;
19207;SDS011;9737;59.466;18.036;2023-07-24T13:29:33;2.00;;;0.63;;
19207;SDS011;9737;59.466;18.036;2023-07-24T13:32:02;2.13;;;0.65;;
19207;SDS011;9737;59.466;18.036;2023-07-24T13:34:31;2.47;;;0.70;;
19207;SDS011;9737;59.466;18.036;2023-07-24T13:36:58;0.45;;;0.45;;
19207;SDS011;9737;59.466;18.036;2023-07-24T13:39:27;1.77;;;0.60;;
19207;SDS011;9737;59.466;18.036;2023-07-24T13:41:55;0.98;;;0.63;;
19207;SDS011;9737;59.466;18.036;2023-07-24T13:44:23;0.73;;;0.70;;
19207;SDS011;9737;59.466;18.036;2023-07-24T13:46:51;0.90;;;0.60;;
19207;SDS011;9737;59.466;18.036;2023-07-24T13:49:23;1.65;;;0.63;;
19207;SDS011;9737;59.466;18.036;2023-07-24T13:51:51;1.02;;;0.77;;
19207;SDS011;9737;59.466;18.036;2023-07-24T13:54:18;0.70;;;0.68;;
19207;SDS011;9737;59.466;18.036;2023-07-24T13:56:46;1.25;;;0.68;;
19207;SDS011;9737;59.466;18.036;2023-07-24T13:59:14;0.98;;;0.80;;
19207;SDS011;9737;59.466;18.036;2023-07-24T14:01:42;0.70;;;0.70;;
19207;SDS011;9737;59.466;18.036;2023-07-24T14:04:11;0.50;;;0.50;;
19207;SDS011;9737;59.466;18.036;2023-07-24T14:06:42;0.90;;;0.63;;
19207;SDS011;9737;59.466;18.036;2023-07-24T14:09:10;0.60;;;0.60;;
19207;SDS011;9737;59.466;18.036;2023-07-24T14:11:39;1.00;;;0.60;;
19207;SDS011;9737;59.466;18.036;2023-07-24T14:14:07;0.90;;;0.70;;
19207;SDS011;9737;59.466;18.036;2023-07-24T14:16:35;0.63;;;0.60;;
19207;SDS011;9737;59.466;18.036;2023-07-24T14:19:06;0.70;;;0.70;;
19207;SDS011;9737;59.466;18.036;2023-07-24T14:21:34;0.68;;;0.63;;
19207;SDS011;9737;59.466;18.036;2023-07-24T14:24:03;1.23;;;0.50;;
19207;SDS011;9737;59.466;18.036;2023-07-24T14:26:31;0.63;;;0.63;;
19207;SDS011;9737;59.466;18.036;2023-07-24T14:28:59;0.60;;;0.43;;
19207;SDS011;9737;59.466;18.036;2023-07-24T14:31:27;1.30;;;0.70;;
19207;SDS011;9737;59.466;18.036;2023-07-24T14:33:56;1.98;;;0.65;;
19207;SDS011;9737;59.466;18.036;2023-07-24T14:36:24;0.65;;;0.60;;
19207;SDS011;9737;59.466;18.036;2023-07-24T14:38:54;0.90;;;0.63;;
19207;SDS011;9737;59.466;18.036;2023-07-24T14:41:23;1.20;;;0.70;;
19207;SDS011;9737;59.466;18.036;2023-07-24T14:43:51;1.15;;;0.65;;
19207;SDS011;9737;59.466;18.036;2023-07-24T14:46:19;0.85;;;0.70;;
19207;SDS011;9737;59.466;18.036;2023-07-24T14:48:46;1.15;;;0.77;;
19207;SDS011;9737;59.466;18.036;2023-07-24T14:51:14;2.30;;;0.85;;
19207;SDS011;9737;59.466;18.036;2023-07-24T14:53:42;1.38;;;0.60;;
19207;SDS011;9737;59.466;18.036;2023-07-24T14:56:10;0.95;;;0.65;;
19207;SDS011;9737;59.466;18.036;2023-07-24T14:58:39;0.75;;;0.60;;